Artesian, Iowa
Current Conditions -  °F | °C
As of 11:54 AM on Thursday 27 Nov 2014 (Local Time) from KALO Reporting Station
Clear Clear  
Wind Chill: -6°   Ceiling: Unl
Heat Index:   Visibility: 10mi
Dew Point: -2°   Wind: 8mph
Humidity: 67%   Direction: 310°NW
Pressure: 30.48"   Gusts: NA
Location:  42.787°N, 92.4284°W
Report Text: KALO 271754Z 31007KT 10SM CLR M14/M19 A3048 RMK AO2 SLP339 T11391189 11139 21167 50001
Loading
Personal Weather Stations






























Interactive Weather Map New forecast layout! Learn more

10-Day Weather Forecast

Advertisements
Track Severe Weather on mobile